Decoded Metar for LEAS (ASTURIAS in SPAIN) (IATA:OVD) | Meteo·Mobile Aviation Weather
aviador You're here:

LEAS Decoded Metar

ASTURIAS in SPAIN
Report Time2020-02-18 21:00:00
UTC Time2020-02-18 21:28:17
Flight Rules vfr VFR
Wind240° at 06 kt
W.Decomp.*RWY 29: 4.1 kt HW 4.4 kt LCW
Visibility9999 m
Phenomena:N/A
Clouds:Few 021 Hf
Expected CloudBase > 1,200 ft AGL from Temp-Dew spread
CeilingNone
Temp08°C (ISA -6)
Dew Point05°C (82% RH)
AAT4.7°C
QNH1036 hPa
Density Alt-948 ft
Elevation440 ft
Report Wrong Elevation
Raw Report
LEAS 182100Z 24006KT 9999 FEW021 08/05 Q1036 NOSIG=

Extra information for LEAS:More info

Metar Taf Metar & Taf Last 4 Metars F.Rules Stats Wind Profile Meteogram Temp Stats Airport Information Weather charts Add Link Nearby VenuesMetar ALERT Operation Metar Decoded Social comments